createdAt,value
2023-03-21T00:00:57.315Z,15.33
2023-03-21T00:03:28.955Z,11.27
2023-03-21T00:05:59.284Z,13.53
2023-03-21T00:08:31.715Z,12.87
2023-03-21T00:11:02.888Z,17.83
2023-03-21T00:13:34.287Z,16.80
2023-03-21T00:16:10.202Z,18.27
2023-03-21T00:18:53.052Z,15.70
2023-03-21T00:24:23.064Z,14.93
2023-03-21T00:26:53.845Z,17.43
2023-03-21T00:29:23.846Z,17.60
2023-03-21T00:31:53.700Z,11.40
2023-03-21T00:34:36.415Z,17.90
2023-03-21T00:37:16.785Z,13.53
2023-03-21T00:39:56.643Z,12.17
2023-03-21T00:42:27.391Z,13.43
2023-03-21T00:44:57.263Z,10.43
2023-03-21T00:47:27.080Z,13.03
2023-03-21T00:49:57.431Z,12.30
2023-03-21T00:52:39.856Z,15.20
2023-03-21T00:55:16.741Z,10.47
2023-03-21T00:57:50.110Z,12.67
2023-03-21T01:00:23.288Z,12.77
2023-03-21T01:03:17.564Z,14.00
2023-03-21T01:06:09.067Z,12.40
2023-03-21T01:08:55.294Z,20.10
2023-03-21T01:11:31.215Z,19.80
2023-03-21T01:14:18.691Z,15.40
2023-03-21T01:16:51.308Z,18.63
2023-03-21T01:19:30.936Z,14.37
2023-03-21T01:22:03.055Z,21.80
2023-03-21T01:24:35.597Z,19.90
2023-03-21T01:27:10.167Z,16.80
2023-03-21T01:29:39.936Z,12.57
2023-03-21T01:32:09.639Z,19.77
2023-03-21T01:34:39.479Z,14.77
2023-03-21T01:37:09.477Z,16.40
2023-03-21T01:39:39.331Z,15.93
2023-03-21T01:42:15.702Z,23.00
2023-03-21T01:44:56.811Z,16.30
2023-03-21T01:47:26.904Z,15.50
2023-03-21T01:50:00.767Z,15.97
2023-03-21T01:52:38.015Z,13.07
2023-03-21T01:55:14.409Z,19.57
2023-03-21T01:58:04.870Z,10.27
2023-03-21T02:00:36.717Z,11.93
2023-03-21T02:03:26.206Z,15.43
2023-03-21T02:06:03.914Z,17.93
2023-03-21T02:08:39.562Z,12.07
2023-03-21T02:11:10.781Z,17.13
2023-03-21T02:13:43.842Z,19.97
2023-03-21T02:16:21.645Z,17.13
2023-03-21T02:18:58.825Z,17.03
2023-03-21T02:21:58.671Z,15.83
2023-03-21T02:24:59.593Z,15.17
2023-03-21T02:27:34.896Z,13.93
2023-03-21T02:30:51.348Z,15.90
2023-03-21T02:34:03.574Z,14.17
2023-03-21T02:36:55.102Z,14.60
2023-03-21T02:39:32.016Z,17.80
2023-03-21T02:42:09.666Z,17.23
2023-03-21T02:44:47.182Z,16.97
2023-03-21T02:47:23.313Z,19.33
2023-03-21T02:49:58.441Z,14.57
2023-03-21T02:52:39.067Z,22.57
2023-03-21T02:55:16.194Z,15.33
2023-03-21T02:57:47.873Z,16.87
2023-03-21T03:00:23.450Z,19.70
2023-03-21T03:03:06.258Z,21.10
2023-03-21T03:05:40.526Z,20.83
2023-03-21T03:08:36.129Z,14.97
2023-03-21T03:11:24.096Z,14.60
2023-03-21T03:14:21.197Z,16.57
2023-03-21T03:17:06.796Z,13.17
2023-03-21T03:19:50.662Z,19.73
2023-03-21T03:22:27.805Z,14.50
2023-03-21T03:25:12.633Z,15.03
2023-03-21T03:27:54.216Z,15.93
2023-03-21T03:30:29.647Z,18.77
2023-03-21T03:33:06.713Z,17.13
2023-03-21T03:35:36.712Z,17.17
2023-03-21T03:38:11.002Z,20.97
2023-03-21T03:40:46.995Z,17.00
2023-03-21T03:43:24.805Z,16.43
2023-03-21T03:46:00.876Z,15.07
2023-03-21T03:48:35.953Z,17.87
2023-03-21T03:51:11.143Z,17.37
2023-03-21T03:53:48.331Z,21.27
2023-03-21T03:56:18.325Z,16.40
2023-03-21T03:58:51.472Z,16.47
2023-03-21T04:01:22.227Z,21.70
2023-03-21T04:04:01.013Z,16.27
2023-03-21T04:06:40.369Z,10.83
2023-03-21T04:09:20.449Z,12.70
2023-03-21T04:11:52.121Z,12.07
2023-03-21T04:14:28.714Z,15.77
2023-03-21T04:17:02.836Z,16.30
2023-03-21T04:19:32.583Z,14.93
2023-03-21T04:22:02.845Z,15.07
2023-03-21T04:24:33.612Z,14.90
2023-03-21T04:27:05.798Z,17.60
2023-03-21T04:29:38.121Z,15.83
2023-03-21T04:32:17.707Z,16.20
2023-03-21T04:34:50.356Z,15.10
2023-03-21T04:37:21.101Z,20.57
2023-03-21T04:39:50.951Z,16.57
2023-03-21T04:42:21.935Z,17.93
2023-03-21T04:44:54.362Z,17.83
2023-03-21T04:47:24.236Z,15.50
2023-03-21T04:49:54.054Z,15.33
2023-03-21T04:52:25.431Z,13.33
2023-03-21T04:54:57.555Z,19.03
2023-03-21T04:57:27.376Z,16.07
2023-03-21T04:59:59.780Z,14.47
2023-03-21T05:02:29.705Z,12.87
2023-03-21T05:05:00.203Z,13.87
2023-03-21T05:07:31.422Z,16.00
2023-03-21T05:10:02.645Z,16.30
2023-03-21T05:12:34.986Z,17.60
2023-03-21T05:15:08.526Z,14.07
2023-03-21T05:17:38.289Z,20.23
2023-03-21T05:20:11.444Z,14.47
2023-03-21T05:22:43.171Z,12.63
2023-03-21T05:25:21.292Z,14.97
2023-03-21T05:30:46.301Z,14.40
2023-03-21T05:33:24.304Z,14.47
2023-03-21T05:35:58.671Z,19.33
2023-03-21T05:38:29.208Z,17.53
2023-03-21T05:40:59.271Z,17.90
2023-03-21T05:43:35.042Z,13.87
2023-03-21T05:46:08.214Z,16.10
2023-03-21T05:48:39.592Z,17.47
2023-03-21T05:51:13.567Z,14.27
2023-03-21T05:53:43.851Z,17.53
2023-03-21T05:56:14.402Z,11.40
2023-03-21T05:58:44.364Z,16.70
2023-03-21T06:01:17.319Z,18.43
2023-03-21T06:03:47.566Z,15.83
2023-03-21T06:06:20.770Z,15.20
2023-03-21T06:08:51.389Z,13.57
2023-03-21T06:11:28.992Z,16.33
2023-03-21T06:13:58.935Z,13.77
2023-03-21T06:16:31.899Z,14.40
2023-03-21T06:19:01.754Z,19.13
2023-03-21T06:21:34.436Z,14.67
2023-03-21T06:24:04.633Z,16.20
2023-03-21T06:26:37.400Z,12.20
2023-03-21T06:29:10.958Z,11.57
2023-03-21T06:31:43.519Z,18.83
2023-03-21T06:34:13.604Z,12.10
2023-03-21T06:36:45.195Z,15.87
2023-03-21T06:39:21.555Z,15.27
2023-03-21T06:41:56.957Z,14.57
2023-03-21T06:44:27.492Z,22.73
2023-03-21T06:47:06.138Z,24.10
2023-03-21T06:49:36.683Z,18.00
2023-03-21T06:52:06.821Z,18.03
2023-03-21T06:54:36.934Z,16.00
2023-03-21T06:57:07.304Z,18.20
2023-03-21T06:59:37.652Z,16.10
2023-03-21T07:02:13.346Z,14.80
2023-03-21T07:04:43.272Z,15.03
2023-03-21T07:07:13.323Z,17.73
2023-03-21T07:09:43.953Z,16.30
2023-03-21T07:12:13.894Z,14.17
2023-03-21T07:14:44.174Z,16.43
2023-03-21T07:17:19.203Z,11.80
2023-03-21T07:19:49.167Z,15.83
2023-03-21T07:22:19.159Z,17.07
2023-03-21T07:25:02.380Z,13.67
2023-03-21T07:27:34.869Z,16.37
2023-03-21T07:30:05.200Z,16.50
2023-03-21T07:32:40.849Z,15.00
2023-03-21T07:35:13.972Z,15.77
2023-03-21T07:37:45.761Z,16.10
2023-03-21T07:40:15.870Z,15.60
2023-03-21T07:42:45.773Z,17.70
2023-03-21T07:45:21.453Z,14.40
2023-03-21T07:47:54.578Z,18.60
2023-03-21T07:50:24.591Z,16.43
2023-03-21T07:52:54.572Z,15.27
2023-03-21T07:55:25.033Z,17.10
2023-03-21T07:57:55.830Z,13.07
2023-03-21T08:00:26.486Z,15.00
2023-03-21T08:03:04.896Z,13.23
2023-03-21T08:05:39.364Z,14.30
2023-03-21T08:08:10.238Z,11.37
2023-03-21T08:10:40.128Z,11.03
2023-03-21T08:13:10.152Z,12.57
2023-03-21T08:15:42.557Z,10.83
2023-03-21T08:18:15.155Z,12.17
2023-03-21T08:20:45.104Z,11.90
2023-03-21T08:23:15.090Z,13.03
2023-03-21T08:25:45.014Z,10.27
2023-03-21T08:28:15.207Z,9.83
2023-03-21T08:30:45.102Z,14.07
2023-03-21T08:33:18.915Z,17.80
2023-03-21T08:35:49.732Z,10.37
2023-03-21T08:38:19.798Z,13.20
2023-03-21T08:40:49.612Z,12.30
2023-03-21T08:43:19.378Z,8.10
2023-03-21T08:45:49.154Z,8.47
2023-03-21T08:48:22.008Z,12.63
2023-03-21T08:50:51.826Z,13.90
2023-03-21T08:53:21.899Z,13.70
2023-03-21T08:55:52.522Z,11.63
2023-03-21T08:58:22.682Z,16.90
2023-03-21T09:00:52.454Z,12.87
2023-03-21T09:03:25.050Z,10.63
2023-03-21T09:05:56.809Z,7.80
2023-03-21T09:08:27.149Z,13.73
2023-03-21T09:10:57.722Z,15.47
2023-03-21T09:13:27.789Z,15.07
2023-03-21T09:15:58.304Z,14.03
2023-03-21T09:18:47.294Z,14.33
2023-03-21T09:21:18.606Z,12.87
2023-03-21T09:23:48.798Z,11.37
2023-03-21T09:26:19.298Z,12.07
2023-03-21T09:28:49.868Z,10.00
2023-03-21T09:31:23.774Z,14.03
2023-03-21T09:33:58.138Z,11.70
2023-03-21T09:36:28.774Z,11.80
2023-03-21T09:38:59.738Z,12.30
2023-03-21T09:41:39.737Z,11.53
2023-03-21T09:44:31.203Z,13.83
2023-03-21T09:47:07.983Z,13.77
2023-03-21T09:49:49.262Z,14.80
2023-03-21T09:52:24.103Z,12.80
2023-03-21T09:54:55.819Z,16.37
2023-03-21T09:57:35.068Z,13.83
2023-03-21T10:00:12.686Z,12.20
2023-03-21T10:02:45.692Z,16.37
2023-03-21T10:05:22.389Z,15.60
2023-03-21T10:07:57.652Z,15.93
2023-03-21T10:10:31.493Z,13.97
2023-03-21T10:13:04.232Z,12.93
2023-03-21T10:15:34.070Z,15.87
2023-03-21T10:18:05.758Z,12.90
2023-03-21T10:20:40.543Z,14.63
2023-03-21T10:23:15.602Z,16.77
2023-03-21T10:25:49.056Z,15.43
2023-03-21T10:28:21.538Z,11.70
2023-03-21T10:30:57.443Z,13.53
2023-03-21T10:33:40.267Z,13.50
2023-03-21T10:36:19.584Z,14.37
2023-03-21T10:38:52.610Z,14.23
2023-03-21T10:41:23.289Z,16.77
2023-03-21T10:44:11.300Z,12.73
2023-03-21T10:46:41.630Z,10.47
2023-03-21T10:49:11.985Z,15.57
2023-03-21T10:51:49.315Z,12.17
2023-03-21T10:54:23.056Z,16.17
2023-03-21T10:57:00.848Z,16.53
2023-03-21T10:59:37.648Z,10.77
2023-03-21T11:02:09.068Z,14.03
2023-03-21T11:04:40.629Z,17.00
2023-03-21T11:07:19.339Z,13.67
2023-03-21T11:09:53.613Z,13.60
2023-03-21T11:12:37.340Z,16.13
2023-03-21T11:15:30.841Z,14.50
2023-03-21T11:18:01.690Z,13.50
2023-03-21T11:20:35.351Z,15.07
2023-03-21T11:23:09.854Z,8.77
2023-03-21T11:25:42.147Z,11.87
2023-03-21T11:28:16.951Z,13.83
2023-03-21T11:30:57.077Z,11.30
2023-03-21T11:33:30.728Z,10.07
2023-03-21T11:36:08.319Z,14.47
2023-03-21T11:38:42.990Z,12.50
2023-03-21T11:41:25.079Z,12.13
2023-03-21T11:43:56.322Z,11.23
2023-03-21T11:46:27.828Z,15.80
2023-03-21T11:48:59.719Z,11.87
2023-03-21T11:51:36.506Z,8.73
2023-03-21T11:54:15.998Z,13.77
2023-03-21T11:56:49.979Z,11.87
2023-03-21T11:59:43.733Z,11.20
2023-03-21T12:02:51.749Z,7.80
2023-03-21T12:05:23.277Z,8.27
2023-03-21T12:08:03.964Z,9.57
2023-03-21T12:10:46.684Z,9.03
2023-03-21T12:13:36.261Z,10.73
2023-03-21T12:16:25.096Z,7.97
2023-03-21T12:19:21.624Z,8.70
2023-03-21T12:22:01.254Z,9.17
2023-03-21T12:24:38.565Z,9.37
2023-03-21T12:27:18.256Z,10.87
2023-03-21T12:30:15.525Z,9.53
2023-03-21T12:32:58.192Z,8.10
2023-03-21T12:35:41.478Z,9.00
2023-03-21T12:38:19.754Z,10.10
2023-03-21T12:41:07.866Z,11.33
2023-03-21T12:43:47.001Z,8.47
2023-03-21T12:46:22.501Z,12.77
2023-03-21T12:48:56.802Z,11.77
2023-03-21T12:51:33.013Z,9.27
2023-03-21T12:54:10.638Z,12.53
2023-03-21T12:56:49.423Z,7.23
2023-03-21T12:59:33.076Z,10.90
2023-03-21T13:02:10.250Z,7.30
2023-03-21T13:04:47.135Z,7.23
2023-03-21T13:07:21.773Z,9.07
2023-03-21T13:09:55.450Z,7.87
2023-03-21T13:12:39.690Z,8.53
2023-03-21T13:15:35.294Z,7.97
2023-03-21T13:18:18.745Z,8.47
2023-03-21T13:20:52.709Z,7.33
2023-03-21T13:23:29.383Z,8.53
2023-03-21T13:26:03.684Z,8.50
2023-03-21T13:28:37.163Z,6.57
2023-03-21T13:31:25.463Z,8.70
2023-03-21T13:34:02.381Z,10.23
2023-03-21T13:36:40.826Z,9.10
2023-03-21T13:39:24.330Z,9.63
2023-03-21T13:41:54.751Z,10.70
2023-03-21T13:44:35.149Z,10.27
2023-03-21T13:47:09.695Z,7.40
2023-03-21T13:49:41.478Z,9.07
2023-03-21T13:52:32.875Z,4.40
2023-03-21T13:55:06.423Z,10.97
2023-03-21T13:57:41.588Z,6.57
2023-03-21T14:00:23.717Z,12.23
2023-03-21T14:03:01.568Z,8.30
2023-03-21T14:05:32.032Z,8.33
2023-03-21T14:08:15.463Z,4.43
2023-03-21T14:10:51.886Z,6.40
2023-03-21T14:13:25.959Z,7.80
2023-03-21T14:15:59.826Z,7.30
2023-03-21T14:18:54.159Z,6.63
2023-03-21T14:21:27.260Z,7.83
2023-03-21T14:24:01.833Z,6.90
2023-03-21T14:26:35.762Z,10.40
2023-03-21T14:29:22.894Z,6.87
2023-03-21T14:31:55.652Z,8.53
2023-03-21T14:34:29.995Z,8.43
2023-03-21T14:37:00.694Z,7.37
2023-03-21T14:39:32.545Z,10.20
2023-03-21T14:42:07.733Z,5.77
2023-03-21T14:44:54.045Z,10.27
2023-03-21T14:47:27.556Z,8.20
2023-03-21T14:50:01.166Z,7.33
2023-03-21T14:52:34.846Z,9.60
2023-03-21T14:55:08.342Z,7.27
2023-03-21T14:57:38.172Z,6.80
2023-03-21T15:00:12.938Z,9.03
2023-03-21T15:02:46.141Z,8.43
2023-03-21T15:05:26.707Z,6.23
2023-03-21T15:07:59.572Z,12.77
2023-03-21T15:10:32.238Z,6.77
2023-03-21T15:13:05.196Z,6.07
2023-03-21T15:15:36.375Z,7.50
2023-03-21T15:18:11.579Z,8.30
2023-03-21T15:20:44.724Z,5.87
2023-03-21T15:23:21.878Z,6.17
2023-03-21T15:25:51.701Z,6.57
2023-03-21T15:28:21.681Z,8.47
2023-03-21T15:30:52.952Z,5.03
2023-03-21T15:33:23.602Z,5.47
2023-03-21T15:35:58.201Z,6.00
2023-03-21T15:38:35.650Z,11.30
2023-03-21T15:41:29.341Z,6.40
2023-03-21T15:44:05.709Z,7.07
2023-03-21T15:46:42.025Z,8.63
2023-03-21T15:49:23.300Z,8.77
2023-03-21T15:51:59.297Z,6.83
2023-03-21T15:54:31.514Z,7.37
2023-03-21T15:57:05.011Z,10.50
2023-03-21T15:59:38.845Z,6.80
2023-03-21T16:02:18.462Z,6.40
2023-03-21T16:04:59.549Z,6.47
2023-03-21T16:07:36.554Z,11.37
2023-03-21T16:10:10.601Z,4.60
2023-03-21T16:12:40.331Z,8.23
2023-03-21T16:15:11.345Z,5.93
2023-03-21T16:17:43.411Z,7.13
2023-03-21T16:20:20.356Z,5.20
2023-03-21T16:22:52.963Z,7.43
2023-03-21T16:25:23.994Z,5.40
2023-03-21T16:27:53.970Z,7.20
2023-03-21T16:30:25.657Z,7.97
2023-03-21T16:32:55.450Z,7.70
2023-03-21T16:35:26.292Z,6.23
2023-03-21T16:37:58.737Z,9.13
2023-03-21T16:40:33.276Z,9.60
2023-03-21T16:43:03.819Z,10.10
2023-03-21T16:45:33.735Z,7.80
2023-03-21T16:48:03.792Z,6.90
2023-03-21T16:50:36.277Z,10.00
2023-03-21T16:53:08.970Z,6.63
2023-03-21T16:55:40.134Z,12.43
2023-03-21T16:58:10.025Z,6.13
2023-03-21T17:00:40.508Z,7.67
2023-03-21T17:03:19.292Z,9.90
2023-03-21T17:05:49.307Z,7.07
2023-03-21T17:08:26.685Z,5.63
2023-03-21T17:10:56.466Z,7.07
2023-03-21T17:13:26.218Z,7.00
2023-03-21T17:15:56.024Z,9.17
2023-03-21T17:18:25.837Z,6.90
2023-03-21T17:20:55.602Z,7.17
2023-03-21T17:23:28.784Z,6.77
2023-03-21T17:25:59.124Z,7.53
2023-03-21T17:28:29.006Z,21.10
2023-03-21T17:30:59.160Z,16.27
2023-03-21T17:33:28.926Z,18.47
2023-03-21T17:35:58.876Z,13.83
2023-03-21T17:38:31.557Z,12.43
2023-03-21T17:41:01.395Z,22.67
2023-03-21T17:43:34.075Z,9.37
2023-03-21T17:46:03.918Z,10.70
2023-03-21T17:48:33.792Z,11.80
2023-03-21T17:51:03.681Z,12.93
2023-03-21T17:53:36.261Z,11.97
2023-03-21T17:56:06.932Z,10.57
2023-03-21T17:58:36.855Z,10.70
2023-03-21T18:01:07.324Z,9.97
2023-03-21T18:03:37.251Z,10.50
2023-03-21T18:06:07.768Z,13.33
2023-03-21T18:08:42.402Z,14.47
2023-03-21T18:11:12.868Z,8.10
2023-03-21T18:13:43.095Z,10.70
2023-03-21T18:16:16.298Z,9.87
2023-03-21T18:18:46.825Z,8.53
2023-03-21T18:21:20.225Z,10.20
2023-03-21T18:23:53.271Z,7.53
2023-03-21T18:26:25.610Z,9.00
2023-03-21T18:29:47.465Z,11.40
2023-03-21T18:32:02.554Z,9.27
2023-03-21T18:34:35.149Z,14.47
2023-03-21T18:37:07.486Z,18.67
2023-03-21T18:39:42.694Z,15.73
2023-03-21T18:42:17.814Z,9.57
2023-03-21T18:44:49.816Z,10.03
2023-03-21T18:47:19.897Z,9.07
2023-03-21T18:52:39.491Z,8.03
2023-03-21T18:55:14.819Z,11.60
2023-03-21T18:57:46.627Z,13.73
2023-03-21T19:00:21.859Z,11.47
2023-03-21T19:03:09.874Z,9.20
2023-03-21T19:05:44.881Z,8.13
2023-03-21T19:08:14.736Z,9.67
2023-03-21T19:10:47.885Z,15.30
2023-03-21T19:13:18.784Z,13.17
2023-03-21T19:15:49.786Z,12.83
2023-03-21T19:21:11.041Z,7.20
2023-03-21T19:24:16.335Z,8.17
2023-03-21T19:26:33.287Z,7.27
2023-03-21T19:29:03.466Z,6.43
2023-03-21T19:31:33.318Z,6.90
2023-03-21T19:34:03.608Z,7.27
2023-03-21T19:36:34.686Z,8.00
2023-03-21T19:39:04.703Z,7.47
2023-03-21T19:41:38.387Z,6.13
2023-03-21T19:44:09.852Z,14.47
2023-03-21T19:46:39.682Z,15.93
2023-03-21T19:49:09.831Z,11.40
2023-03-21T19:51:40.037Z,9.70
2023-03-21T19:54:09.814Z,9.27
2023-03-21T19:56:47.025Z,12.43
2023-03-21T19:59:17.575Z,9.17
2023-03-21T20:01:48.830Z,8.93
2023-03-21T20:04:19.255Z,8.57
2023-03-21T20:06:50.735Z,9.90
2023-03-21T20:09:50.793Z,9.07
2023-03-21T20:12:14.303Z,11.57
2023-03-21T20:14:47.784Z,11.70
2023-03-21T20:17:17.646Z,8.30
2023-03-21T20:19:47.442Z,6.00
2023-03-21T20:22:27.278Z,7.67
2023-03-21T20:24:58.177Z,12.37
2023-03-21T20:27:30.794Z,12.33
2023-03-21T20:30:09.144Z,8.47
2023-03-21T20:32:40.121Z,7.70
2023-03-21T20:35:20.761Z,9.93
2023-03-21T20:37:54.436Z,9.63
2023-03-21T20:40:24.379Z,8.53
2023-03-21T20:43:00.264Z,9.83
2023-03-21T20:45:35.937Z,9.83
2023-03-21T20:48:06.052Z,13.67
2023-03-21T20:50:39.281Z,10.30
2023-03-21T20:53:09.621Z,11.10
2023-03-21T20:55:39.911Z,9.73
2023-03-21T20:58:36.546Z,11.20
2023-03-21T21:01:04.856Z,9.53
2023-03-21T21:03:38.387Z,11.53
2023-03-21T21:06:14.296Z,10.27
2023-03-21T21:08:44.331Z,8.97
2023-03-21T21:14:08.851Z,8.77
2023-03-21T21:16:41.336Z,9.13
2023-03-21T21:19:11.327Z,11.57
2023-03-21T21:21:41.270Z,8.00
2023-03-21T21:24:11.895Z,14.60
2023-03-21T21:26:46.271Z,12.43
2023-03-21T21:29:19.739Z,10.30
2023-03-21T21:31:52.003Z,10.10
2023-03-21T21:34:22.197Z,10.37
2023-03-21T21:36:52.304Z,10.50
2023-03-21T21:39:22.136Z,8.30
2023-03-21T21:41:51.814Z,8.23
2023-03-21T21:44:24.151Z,9.37
2023-03-21T21:46:53.986Z,11.57
2023-03-21T21:49:23.872Z,9.33
2023-03-21T21:51:53.703Z,11.90
2023-03-21T21:54:23.466Z,8.10
2023-03-21T21:56:54.333Z,9.73
2023-03-21T21:59:27.368Z,14.47
2023-03-21T22:01:58.684Z,12.17
2023-03-21T22:04:28.704Z,9.10
2023-03-21T22:06:58.875Z,6.70
2023-03-21T22:09:28.835Z,8.97
2023-03-21T22:11:58.704Z,7.23
2023-03-21T22:14:31.092Z,10.47
2023-03-21T22:17:02.621Z,8.73
2023-03-21T22:19:32.596Z,9.87
2023-03-21T22:22:02.370Z,10.70
2023-03-21T22:24:32.165Z,9.67
2023-03-21T22:27:01.982Z,10.27
2023-03-21T22:29:34.685Z,8.47
2023-03-21T22:32:04.494Z,8.80
2023-03-21T22:34:34.290Z,6.90
2023-03-21T22:37:04.066Z,9.93
2023-03-21T22:39:33.875Z,9.83
2023-03-21T22:42:04.960Z,11.37
2023-03-21T22:44:37.629Z,8.50
2023-03-21T22:47:09.574Z,10.90
2023-03-21T22:49:39.953Z,7.40
2023-03-21T22:52:10.034Z,8.57
2023-03-21T22:54:40.525Z,6.50
2023-03-21T22:57:11.124Z,12.13
2023-03-21T22:59:43.597Z,12.00
2023-03-21T23:02:13.363Z,6.67
2023-03-21T23:04:43.739Z,11.97
2023-03-21T23:07:13.655Z,11.53
2023-03-21T23:09:43.904Z,7.80
2023-03-21T23:12:14.853Z,7.63
2023-03-21T23:14:47.192Z,10.10
2023-03-21T23:17:17.003Z,12.33
2023-03-21T23:19:46.833Z,6.93
2023-03-21T23:22:16.660Z,8.80
2023-03-21T23:24:47.138Z,9.30
2023-03-21T23:27:18.306Z,9.10
2023-03-21T23:29:51.770Z,14.07
2023-03-21T23:32:21.920Z,13.70
2023-03-21T23:34:51.664Z,9.53
2023-03-21T23:37:21.522Z,12.03
2023-03-21T23:39:52.590Z,10.50
2023-03-21T23:42:22.347Z,8.00
2023-03-21T23:44:54.836Z,13.27
2023-03-21T23:47:24.712Z,7.97
2023-03-21T23:49:54.615Z,9.67
2023-03-21T23:52:26.217Z,11.03
2023-03-21T23:54:56.005Z,9.13
2023-03-21T23:57:25.744Z,11.60
